sensor_id;sensor_type;location;lat;lon;timestamp;P1;durP1;ratioP1;P2;durP2;ratioP2
29184;SDS011;16233;47.964;-3.842;2022-07-06T00:00:59;3.55;;;1.48;;
29184;SDS011;16233;47.964;-3.842;2022-07-06T00:03:00;6.38;;;1.60;;
29184;SDS011;16233;47.964;-3.842;2022-07-06T00:05:01;1.38;;;1.27;;
29184;SDS011;16233;47.964;-3.842;2022-07-06T00:07:04;2.95;;;1.95;;
29184;SDS011;16233;47.964;-3.842;2022-07-06T00:09:05;2.58;;;2.00;;
29184;SDS011;16233;47.964;-3.842;2022-07-06T00:11:06;4.90;;;1.88;;
29184;SDS011;16233;47.964;-3.842;2022-07-06T00:13:07;2.00;;;1.80;;
29184;SDS011;16233;47.964;-3.842;2022-07-06T00:15:08;3.17;;;1.90;;
29184;SDS011;16233;47.964;-3.842;2022-07-06T00:17:10;2.42;;;1.83;;
29184;SDS011;16233;47.964;-3.842;2022-07-06T00:19:11;3.92;;;2.30;;
29184;SDS011;16233;47.964;-3.842;2022-07-06T00:21:12;5.20;;;2.00;;
29184;SDS011;16233;47.964;-3.842;2022-07-06T00:23:14;6.72;;;2.20;;
29184;SDS011;16233;47.964;-3.842;2022-07-06T00:25:15;2.85;;;1.75;;
29184;SDS011;16233;47.964;-3.842;2022-07-06T00:27:16;2.33;;;2.10;;
29184;SDS011;16233;47.964;-3.842;2022-07-06T00:29:17;4.00;;;2.30;;
29184;SDS011;16233;47.964;-3.842;2022-07-06T00:31:18;4.07;;;2.03;;
29184;SDS011;16233;47.964;-3.842;2022-07-06T00:33:19;6.13;;;1.63;;
29184;SDS011;16233;47.964;-3.842;2022-07-06T00:35:21;3.95;;;2.00;;
29184;SDS011;16233;47.964;-3.842;2022-07-06T00:37:22;5.35;;;2.15;;
29184;SDS011;16233;47.964;-3.842;2022-07-06T00:39:24;3.50;;;1.52;;
29184;SDS011;16233;47.964;-3.842;2022-07-06T00:41:25;3.30;;;1.50;;
29184;SDS011;16233;47.964;-3.842;2022-07-06T00:43:26;5.10;;;2.25;;
29184;SDS011;16233;47.964;-3.842;2022-07-06T00:45:27;4.68;;;2.72;;
29184;SDS011;16233;47.964;-3.842;2022-07-06T00:47:28;7.88;;;2.33;;
29184;SDS011;16233;47.964;-3.842;2022-07-06T00:49:29;8.60;;;2.10;;
29184;SDS011;16233;47.964;-3.842;2022-07-06T00:51:31;7.03;;;1.67;;
29184;SDS011;16233;47.964;-3.842;2022-07-06T00:53:36;5.68;;;2.45;;
29184;SDS011;16233;47.964;-3.842;2022-07-06T00:55:39;1.90;;;1.40;;
29184;SDS011;16233;47.964;-3.842;2022-07-06T00:57:40;2.80;;;1.80;;
29184;SDS011;16233;47.964;-3.842;2022-07-06T00:59:42;2.30;;;1.60;;
29184;SDS011;16233;47.964;-3.842;2022-07-06T01:01:43;4.10;;;1.90;;
29184;SDS011;16233;47.964;-3.842;2022-07-06T01:03:44;5.32;;;2.40;;
29184;SDS011;16233;47.964;-3.842;2022-07-06T01:05:45;2.15;;;1.60;;
29184;SDS011;16233;47.964;-3.842;2022-07-06T01:07:47;1.63;;;1.50;;
29184;SDS011;16233;47.964;-3.842;2022-07-06T01:09:49;2.80;;;1.77;;
29184;SDS011;16233;47.964;-3.842;2022-07-06T01:11:52;4.28;;;1.60;;
29184;SDS011;16233;47.964;-3.842;2022-07-06T01:13:53;6.72;;;1.80;;
29184;SDS011;16233;47.964;-3.842;2022-07-06T01:15:56;2.13;;;1.90;;
29184;SDS011;16233;47.964;-3.842;2022-07-06T01:17:57;4.82;;;2.30;;
29184;SDS011;16233;47.964;-3.842;2022-07-06T01:20:05;3.17;;;2.42;;
29184;SDS011;16233;47.964;-3.842;2022-07-06T01:22:08;4.40;;;1.45;;
29184;SDS011;16233;47.964;-3.842;2022-07-06T01:24:09;3.78;;;2.00;;
29184;SDS011;16233;47.964;-3.842;2022-07-06T01:26:11;4.05;;;2.22;;
29184;SDS011;16233;47.964;-3.842;2022-07-06T01:28:13;7.68;;;2.83;;
29184;SDS011;16233;47.964;-3.842;2022-07-06T01:30:14;4.90;;;2.50;;
29184;SDS011;16233;47.964;-3.842;2022-07-06T01:32:16;5.18;;;2.72;;
29184;SDS011;16233;47.964;-3.842;2022-07-06T01:34:17;4.82;;;2.97;;
29184;SDS011;16233;47.964;-3.842;2022-07-06T01:36:20;4.22;;;2.67;;
29184;SDS011;16233;47.964;-3.842;2022-07-06T01:38:21;5.10;;;2.60;;
29184;SDS011;16233;47.964;-3.842;2022-07-06T01:40:22;3.88;;;2.97;;
29184;SDS011;16233;47.964;-3.842;2022-07-06T01:42:23;6.43;;;3.10;;
29184;SDS011;16233;47.964;-3.842;2022-07-06T01:44:24;7.07;;;3.75;;
29184;SDS011;16233;47.964;-3.842;2022-07-06T01:46:25;2.95;;;2.70;;
29184;SDS011;16233;47.964;-3.842;2022-07-06T01:48:26;6.50;;;2.90;;
29184;SDS011;16233;47.964;-3.842;2022-07-06T01:50:27;3.38;;;2.80;;
29184;SDS011;16233;47.964;-3.842;2022-07-06T01:52:29;5.63;;;3.20;;
29184;SDS011;16233;47.964;-3.842;2022-07-06T01:54:30;3.53;;;2.88;;
29184;SDS011;16233;47.964;-3.842;2022-07-06T01:56:31;5.18;;;3.90;;
29184;SDS011;16233;47.964;-3.842;2022-07-06T01:58:32;4.72;;;3.25;;
29184;SDS011;16233;47.964;-3.842;2022-07-06T02:00:33;6.30;;;3.53;;
29184;SDS011;16233;47.964;-3.842;2022-07-06T02:02:34;6.50;;;3.70;;
29184;SDS011;16233;47.964;-3.842;2022-07-06T02:04:35;4.53;;;3.53;;
29184;SDS011;16233;47.964;-3.842;2022-07-06T02:06:36;4.90;;;3.67;;
29184;SDS011;16233;47.964;-3.842;2022-07-06T02:08:39;4.53;;;4.13;;
29184;SDS011;16233;47.964;-3.842;2022-07-06T02:10:41;4.10;;;3.70;;
29184;SDS011;16233;47.964;-3.842;2022-07-06T02:12:42;4.55;;;4.05;;
29184;SDS011;16233;47.964;-3.842;2022-07-06T02:14:43;6.82;;;4.20;;
29184;SDS011;16233;47.964;-3.842;2022-07-06T02:16:44;6.18;;;4.45;;
29184;SDS011;16233;47.964;-3.842;2022-07-06T02:18:45;8.63;;;4.05;;
29184;SDS011;16233;47.964;-3.842;2022-07-06T02:20:46;8.63;;;4.28;;
29184;SDS011;16233;47.964;-3.842;2022-07-06T02:22:47;8.32;;;5.82;;
29184;SDS011;16233;47.964;-3.842;2022-07-06T02:24:49;5.90;;;3.88;;
29184;SDS011;16233;47.964;-3.842;2022-07-06T02:26:50;8.40;;;4.68;;
29184;SDS011;16233;47.964;-3.842;2022-07-06T02:28:51;7.72;;;4.57;;
29184;SDS011;16233;47.964;-3.842;2022-07-06T02:30:52;5.28;;;4.07;;
29184;SDS011;16233;47.964;-3.842;2022-07-06T02:32:53;10.73;;;5.03;;
29184;SDS011;16233;47.964;-3.842;2022-07-06T02:34:54;6.55;;;4.20;;
29184;SDS011;16233;47.964;-3.842;2022-07-06T02:36:55;8.05;;;4.88;;
29184;SDS011;16233;47.964;-3.842;2022-07-06T02:38:56;9.18;;;5.70;;
29184;SDS011;16233;47.964;-3.842;2022-07-06T02:40:59;7.25;;;4.57;;
29184;SDS011;16233;47.964;-3.842;2022-07-06T02:43:00;7.35;;;4.82;;
29184;SDS011;16233;47.964;-3.842;2022-07-06T02:45:01;5.35;;;4.60;;
29184;SDS011;16233;47.964;-3.842;2022-07-06T02:47:02;8.77;;;4.82;;
29184;SDS011;16233;47.964;-3.842;2022-07-06T02:49:03;8.65;;;4.55;;
29184;SDS011;16233;47.964;-3.842;2022-07-06T02:51:04;6.50;;;4.68;;
29184;SDS011;16233;47.964;-3.842;2022-07-06T02:53:05;8.20;;;5.43;;
29184;SDS011;16233;47.964;-3.842;2022-07-06T02:55:06;6.45;;;4.82;;
29184;SDS011;16233;47.964;-3.842;2022-07-06T02:57:09;5.15;;;4.68;;
29184;SDS011;16233;47.964;-3.842;2022-07-06T02:59:10;6.65;;;4.65;;
29184;SDS011;16233;47.964;-3.842;2022-07-06T03:01:11;7.25;;;4.43;;
29184;SDS011;16233;47.964;-3.842;2022-07-06T03:03:12;8.70;;;4.80;;
29184;SDS011;16233;47.964;-3.842;2022-07-06T03:05:13;6.10;;;5.28;;
29184;SDS011;16233;47.964;-3.842;2022-07-06T03:07:14;6.13;;;4.80;;
29184;SDS011;16233;47.964;-3.842;2022-07-06T03:09:15;8.30;;;5.15;;
29184;SDS011;16233;47.964;-3.842;2022-07-06T03:11:16;5.95;;;5.32;;
29184;SDS011;16233;47.964;-3.842;2022-07-06T03:13:19;8.77;;;5.63;;
29184;SDS011;16233;47.964;-3.842;2022-07-06T03:15:20;8.90;;;4.82;;
29184;SDS011;16233;47.964;-3.842;2022-07-06T03:17:21;8.18;;;5.45;;
29184;SDS011;16233;47.964;-3.842;2022-07-06T03:19:22;7.10;;;5.20;;
29184;SDS011;16233;47.964;-3.842;2022-07-06T03:21:23;7.07;;;5.53;;
29184;SDS011;16233;47.964;-3.842;2022-07-06T03:23:24;11.05;;;5.65;;
29184;SDS011;16233;47.964;-3.842;2022-07-06T03:25:25;5.97;;;5.38;;
29184;SDS011;16233;47.964;-3.842;2022-07-06T03:27:26;6.47;;;5.88;;
29184;SDS011;16233;47.964;-3.842;2022-07-06T03:29:28;9.35;;;5.25;;
29184;SDS011;16233;47.964;-3.842;2022-07-06T03:31:30;6.00;;;5.45;;
29184;SDS011;16233;47.964;-3.842;2022-07-06T03:33:31;8.43;;;5.82;;
29184;SDS011;16233;47.964;-3.842;2022-07-06T03:35:32;10.48;;;5.70;;
29184;SDS011;16233;47.964;-3.842;2022-07-06T03:37:33;8.40;;;6.10;;
29184;SDS011;16233;47.964;-3.842;2022-07-06T03:39:34;9.00;;;6.25;;
29184;SDS011;16233;47.964;-3.842;2022-07-06T03:41:35;8.68;;;5.55;;
29184;SDS011;16233;47.964;-3.842;2022-07-06T03:43:36;7.80;;;6.28;;
29184;SDS011;16233;47.964;-3.842;2022-07-06T03:45:38;6.72;;;5.35;;
29184;SDS011;16233;47.964;-3.842;2022-07-06T03:47:39;6.22;;;5.65;;
29184;SDS011;16233;47.964;-3.842;2022-07-06T03:49:40;7.05;;;5.30;;
29184;SDS011;16233;47.964;-3.842;2022-07-06T03:51:41;6.93;;;5.07;;
29184;SDS011;16233;47.964;-3.842;2022-07-06T03:53:42;6.45;;;5.85;;
29184;SDS011;16233;47.964;-3.842;2022-07-06T03:55:43;7.07;;;6.03;;
29184;SDS011;16233;47.964;-3.842;2022-07-06T03:57:44;7.75;;;5.25;;
29184;SDS011;16233;47.964;-3.842;2022-07-06T03:59:45;6.57;;;5.45;;
29184;SDS011;16233;47.964;-3.842;2022-07-06T04:01:47;8.80;;;5.78;;
29184;SDS011;16233;47.964;-3.842;2022-07-06T04:03:48;7.30;;;5.40;;
29184;SDS011;16233;47.964;-3.842;2022-07-06T04:05:50;7.28;;;6.47;;
29184;SDS011;16233;47.964;-3.842;2022-07-06T04:07:51;9.93;;;6.03;;
29184;SDS011;16233;47.964;-3.842;2022-07-06T04:09:52;9.55;;;5.75;;
29184;SDS011;16233;47.964;-3.842;2022-07-06T04:11:53;6.70;;;5.60;;
29184;SDS011;16233;47.964;-3.842;2022-07-06T04:13:53;7.07;;;5.95;;
29184;SDS011;16233;47.964;-3.842;2022-07-06T04:15:54;8.75;;;6.00;;
29184;SDS011;16233;47.964;-3.842;2022-07-06T04:17:57;11.10;;;6.30;;
29184;SDS011;16233;47.964;-3.842;2022-07-06T04:19:58;7.05;;;5.63;;
29184;SDS011;16233;47.964;-3.842;2022-07-06T04:21:59;9.55;;;6.68;;
29184;SDS011;16233;47.964;-3.842;2022-07-06T04:24:00;7.72;;;6.10;;
29184;SDS011;16233;47.964;-3.842;2022-07-06T04:26:01;7.78;;;5.78;;
29184;SDS011;16233;47.964;-3.842;2022-07-06T04:28:02;7.30;;;5.90;;
29184;SDS011;16233;47.964;-3.842;2022-07-06T04:30:04;9.13;;;5.53;;
29184;SDS011;16233;47.964;-3.842;2022-07-06T04:32:06;8.80;;;6.15;;
29184;SDS011;16233;47.964;-3.842;2022-07-06T04:34:09;9.52;;;6.38;;
29184;SDS011;16233;47.964;-3.842;2022-07-06T04:36:10;7.35;;;5.85;;
29184;SDS011;16233;47.964;-3.842;2022-07-06T04:38:11;10.07;;;5.90;;
29184;SDS011;16233;47.964;-3.842;2022-07-06T04:40:12;8.00;;;5.45;;
29184;SDS011;16233;47.964;-3.842;2022-07-06T04:42:13;10.60;;;6.38;;
29184;SDS011;16233;47.964;-3.842;2022-07-06T04:44:14;8.20;;;5.53;;
29184;SDS011;16233;47.964;-3.842;2022-07-06T04:46:15;7.45;;;5.80;;
29184;SDS011;16233;47.964;-3.842;2022-07-06T04:48:16;6.03;;;5.43;;
29184;SDS011;16233;47.964;-3.842;2022-07-06T04:50:19;8.88;;;5.00;;
29184;SDS011;16233;47.964;-3.842;2022-07-06T04:52:20;6.95;;;5.65;;
29184;SDS011;16233;47.964;-3.842;2022-07-06T04:54:21;7.63;;;5.20;;
29184;SDS011;16233;47.964;-3.842;2022-07-06T04:56:22;7.43;;;5.55;;
29184;SDS011;16233;47.964;-3.842;2022-07-06T04:58:23;8.18;;;5.15;;
29184;SDS011;16233;47.964;-3.842;2022-07-06T05:00:24;5.72;;;5.00;;
29184;SDS011;16233;47.964;-3.842;2022-07-06T05:02:25;6.55;;;5.63;;
29184;SDS011;16233;47.964;-3.842;2022-07-06T05:04:26;8.15;;;5.43;;
29184;SDS011;16233;47.964;-3.842;2022-07-06T05:06:28;5.97;;;4.97;;
29184;SDS011;16233;47.964;-3.842;2022-07-06T05:08:29;7.43;;;5.00;;
29184;SDS011;16233;47.964;-3.842;2022-07-06T05:10:30;7.88;;;5.93;;
29184;SDS011;16233;47.964;-3.842;2022-07-06T05:12:31;5.68;;;4.82;;
29184;SDS011;16233;47.964;-3.842;2022-07-06T05:14:32;6.60;;;5.50;;
29184;SDS011;16233;47.964;-3.842;2022-07-06T05:16:33;6.05;;;4.93;;
29184;SDS011;16233;47.964;-3.842;2022-07-06T05:18:34;6.47;;;5.30;;
29184;SDS011;16233;47.964;-3.842;2022-07-06T05:20:35;5.15;;;4.65;;
29184;SDS011;16233;47.964;-3.842;2022-07-06T05:22:38;6.97;;;5.03;;
29184;SDS011;16233;47.964;-3.842;2022-07-06T05:24:39;8.63;;;5.07;;
29184;SDS011;16233;47.964;-3.842;2022-07-06T05:26:40;5.20;;;4.70;;
29184;SDS011;16233;47.964;-3.842;2022-07-06T05:28:41;7.25;;;4.28;;
29184;SDS011;16233;47.964;-3.842;2022-07-06T05:30:42;6.50;;;4.45;;
29184;SDS011;16233;47.964;-3.842;2022-07-06T05:32:43;4.28;;;3.97;;
29184;SDS011;16233;47.964;-3.842;2022-07-06T05:34:44;9.82;;;3.92;;
29184;SDS011;16233;47.964;-3.842;2022-07-06T05:36:45;5.05;;;4.55;;
29184;SDS011;16233;47.964;-3.842;2022-07-06T05:38:47;4.32;;;3.92;;
29184;SDS011;16233;47.964;-3.842;2022-07-06T05:40:48;4.43;;;4.05;;
29184;SDS011;16233;47.964;-3.842;2022-07-06T05:42:49;4.90;;;4.20;;
29184;SDS011;16233;47.964;-3.842;2022-07-06T05:44:53;5.57;;;4.00;;
29184;SDS011;16233;47.964;-3.842;2022-07-06T05:46:55;4.55;;;4.03;;
29184;SDS011;16233;47.964;-3.842;2022-07-06T05:48:56;5.28;;;3.85;;
29184;SDS011;16233;47.964;-3.842;2022-07-06T05:50:57;4.63;;;3.40;;
29184;SDS011;16233;47.964;-3.842;2022-07-06T05:52:58;3.83;;;3.47;;
29184;SDS011;16233;47.964;-3.842;2022-07-06T05:55:02;4.32;;;3.55;;
29184;SDS011;16233;47.964;-3.842;2022-07-06T05:57:03;6.85;;;3.83;;
29184;SDS011;16233;47.964;-3.842;2022-07-06T05:59:04;7.35;;;3.70;;
29184;SDS011;16233;47.964;-3.842;2022-07-06T06:01:05;6.40;;;3.60;;
29184;SDS011;16233;47.964;-3.842;2022-07-06T06:03:06;3.63;;;3.28;;
29184;SDS011;16233;47.964;-3.842;2022-07-06T06:05:08;3.05;;;2.88;;
29184;SDS011;16233;47.964;-3.842;2022-07-06T06:07:10;9.77;;;3.40;;
29184;SDS011;16233;47.964;-3.842;2022-07-06T06:09:11;5.18;;;2.65;;
29184;SDS011;16233;47.964;-3.842;2022-07-06T06:11:14;3.35;;;2.90;;
29184;SDS011;16233;47.964;-3.842;2022-07-06T06:13:15;7.85;;;3.15;;
29184;SDS011;16233;47.964;-3.842;2022-07-06T06:15:16;2.95;;;2.72;;
29184;SDS011;16233;47.964;-3.842;2022-07-06T06:17:17;3.25;;;3.05;;
29184;SDS011;16233;47.964;-3.842;2022-07-06T06:19:18;3.08;;;2.83;;
29184;SDS011;16233;47.964;-3.842;2022-07-06T06:21:19;2.80;;;2.55;;
29184;SDS011;16233;47.964;-3.842;2022-07-06T06:23:20;2.80;;;2.60;;
29184;SDS011;16233;47.964;-3.842;2022-07-06T06:25:26;3.63;;;2.30;;
29184;SDS011;16233;47.964;-3.842;2022-07-06T06:27:30;2.42;;;2.22;;
29184;SDS011;16233;47.964;-3.842;2022-07-06T06:29:31;2.28;;;2.17;;
29184;SDS011;16233;47.964;-3.842;2022-07-06T06:31:32;2.78;;;2.53;;
29184;SDS011;16233;47.964;-3.842;2022-07-06T06:33:33;2.28;;;2.08;;
29184;SDS011;16233;47.964;-3.842;2022-07-06T06:35:34;2.05;;;1.88;;
29184;SDS011;16233;47.964;-3.842;2022-07-06T06:37:35;2.88;;;2.47;;
29184;SDS011;16233;47.964;-3.842;2022-07-06T06:39:36;3.03;;;2.53;;
29184;SDS011;16233;47.964;-3.842;2022-07-06T06:41:37;2.20;;;2.10;;
29184;SDS011;16233;47.964;-3.842;2022-07-06T06:43:40;2.22;;;2.13;;
29184;SDS011;16233;47.964;-3.842;2022-07-06T06:45:41;6.68;;;2.20;;
29184;SDS011;16233;47.964;-3.842;2022-07-06T06:47:42;2.63;;;2.28;;
29184;SDS011;16233;47.964;-3.842;2022-07-06T06:49:43;3.40;;;2.65;;
29184;SDS011;16233;47.964;-3.842;2022-07-06T06:51:44;2.03;;;1.92;;
29184;SDS011;16233;47.964;-3.842;2022-07-06T06:53:45;2.50;;;2.30;;
29184;SDS011;16233;47.964;-3.842;2022-07-06T06:55:46;2.40;;;2.20;;
29184;SDS011;16233;47.964;-3.842;2022-07-06T06:57:47;4.10;;;2.42;;
29184;SDS011;16233;47.964;-3.842;2022-07-06T06:59:49;3.72;;;2.08;;
29184;SDS011;16233;47.964;-3.842;2022-07-06T07:01:50;3.20;;;2.20;;
29184;SDS011;16233;47.964;-3.842;2022-07-06T07:03:51;3.00;;;2.30;;
29184;SDS011;16233;47.964;-3.842;2022-07-06T07:05:52;2.55;;;2.45;;
29184;SDS011;16233;47.964;-3.842;2022-07-06T07:07:53;1.80;;;1.70;;
29184;SDS011;16233;47.964;-3.842;2022-07-06T07:09:54;2.67;;;2.45;;
29184;SDS011;16233;47.964;-3.842;2022-07-06T07:11:55;4.43;;;2.65;;
29184;SDS011;16233;47.964;-3.842;2022-07-06T07:13:56;1.90;;;1.80;;
29184;SDS011;16233;47.964;-3.842;2022-07-06T07:15:59;1.95;;;1.85;;
29184;SDS011;16233;47.964;-3.842;2022-07-06T07:18:00;1.98;;;1.88;;
29184;SDS011;16233;47.964;-3.842;2022-07-06T07:20:01;1.95;;;1.85;;
29184;SDS011;16233;47.964;-3.842;2022-07-06T07:22:02;1.90;;;1.80;;
29184;SDS011;16233;47.964;-3.842;2022-07-06T07:24:04;3.55;;;1.90;;
29184;SDS011;16233;47.964;-3.842;2022-07-06T07:26:05;1.75;;;1.65;;
29184;SDS011;16233;47.964;-3.842;2022-07-06T07:28:06;1.90;;;1.63;;
29184;SDS011;16233;47.964;-3.842;2022-07-06T07:30:08;3.30;;;1.90;;
29184;SDS011;16233;47.964;-3.842;2022-07-06T07:32:12;1.75;;;1.65;;
29184;SDS011;16233;47.964;-3.842;2022-07-06T07:34:13;1.77;;;1.67;;
29184;SDS011;16233;47.964;-3.842;2022-07-06T07:36:14;3.38;;;1.55;;
29184;SDS011;16233;47.964;-3.842;2022-07-06T07:38:15;1.88;;;1.60;;
29184;SDS011;16233;47.964;-3.842;2022-07-06T07:40:16;2.35;;;1.65;;
29184;SDS011;16233;47.964;-3.842;2022-07-06T07:42:17;1.67;;;1.58;;
29184;SDS011;16233;47.964;-3.842;2022-07-06T07:44:18;3.78;;;1.90;;
29184;SDS011;16233;47.964;-3.842;2022-07-06T07:46:19;1.70;;;1.40;;
29184;SDS011;16233;47.964;-3.842;2022-07-06T07:48:21;3.67;;;1.50;;
29184;SDS011;16233;47.964;-3.842;2022-07-06T07:50:23;1.38;;;1.27;;
29184;SDS011;16233;47.964;-3.842;2022-07-06T07:52:24;1.52;;;1.52;;
29184;SDS011;16233;47.964;-3.842;2022-07-06T07:54:25;1.58;;;1.52;;
29184;SDS011;16233;47.964;-3.842;2022-07-06T07:56:26;3.58;;;2.28;;
29184;SDS011;16233;47.964;-3.842;2022-07-06T07:58:27;3.75;;;1.80;;
29184;SDS011;16233;47.964;-3.842;2022-07-06T08:00:28;1.70;;;1.70;;
29184;SDS011;16233;47.964;-3.842;2022-07-06T08:02:29;1.63;;;1.63;;
29184;SDS011;16233;47.964;-3.842;2022-07-06T08:04:31;2.00;;;1.90;;
29184;SDS011;16233;47.964;-3.842;2022-07-06T08:06:32;1.85;;;1.80;;
29184;SDS011;16233;47.964;-3.842;2022-07-06T08:08:33;2.20;;;2.10;;
29184;SDS011;16233;47.964;-3.842;2022-07-06T08:10:34;2.10;;;2.00;;
29184;SDS011;16233;47.964;-3.842;2022-07-06T08:12:35;1.98;;;1.80;;
29184;SDS011;16233;47.964;-3.842;2022-07-06T08:14:36;2.25;;;2.03;;
29184;SDS011;16233;47.964;-3.842;2022-07-06T08:16:37;2.20;;;2.10;;
29184;SDS011;16233;47.964;-3.842;2022-07-06T08:18:39;5.75;;;2.15;;
29184;SDS011;16233;47.964;-3.842;2022-07-06T08:20:41;2.35;;;2.15;;
29184;SDS011;16233;47.964;-3.842;2022-07-06T08:22:42;2.33;;;2.13;;
29184;SDS011;16233;47.964;-3.842;2022-07-06T08:24:43;9.07;;;2.22;;
29184;SDS011;16233;47.964;-3.842;2022-07-06T08:26:44;2.22;;;2.05;;
29184;SDS011;16233;47.964;-3.842;2022-07-06T08:28:45;2.33;;;2.15;;
29184;SDS011;16233;47.964;-3.842;2022-07-06T08:30:47;2.15;;;2.05;;
29184;SDS011;16233;47.964;-3.842;2022-07-06T08:32:48;2.92;;;2.10;;
29184;SDS011;16233;47.964;-3.842;2022-07-06T08:34:49;2.83;;;2.60;;
29184;SDS011;16233;47.964;-3.842;2022-07-06T08:36:51;2.13;;;1.90;;
29184;SDS011;16233;47.964;-3.842;2022-07-06T08:38:52;2.45;;;2.10;;
29184;SDS011;16233;47.964;-3.842;2022-07-06T08:40:54;2.42;;;1.80;;
29184;SDS011;16233;47.964;-3.842;2022-07-06T08:42:56;2.17;;;1.80;;
29184;SDS011;16233;47.964;-3.842;2022-07-06T08:44:59;2.63;;;1.80;;
29184;SDS011;16233;47.964;-3.842;2022-07-06T08:47:02;2.00;;;1.90;;
29184;SDS011;16233;47.964;-3.842;2022-07-06T08:49:06;1.88;;;1.77;;
29184;SDS011;16233;47.964;-3.842;2022-07-06T08:51:07;1.70;;;1.60;;
29184;SDS011;16233;47.964;-3.842;2022-07-06T08:53:11;2.53;;;2.42;;
29184;SDS011;16233;47.964;-3.842;2022-07-06T08:55:12;2.28;;;1.90;;
29184;SDS011;16233;47.964;-3.842;2022-07-06T08:57:13;2.08;;;1.98;;
29184;SDS011;16233;47.964;-3.842;2022-07-06T08:59:14;4.90;;;1.80;;
29184;SDS011;16233;47.964;-3.842;2022-07-06T09:01:16;1.85;;;1.75;;
29184;SDS011;16233;47.964;-3.842;2022-07-06T09:03:17;2.20;;;2.10;;
29184;SDS011;16233;47.964;-3.842;2022-07-06T09:05:19;1.50;;;1.40;;
29184;SDS011;16233;47.964;-3.842;2022-07-06T09:07:22;1.40;;;1.30;;
29184;SDS011;16233;47.964;-3.842;2022-07-06T09:09:26;1.60;;;1.50;;
29184;SDS011;16233;47.964;-3.842;2022-07-06T09:11:29;1.50;;;1.50;;
29184;SDS011;16233;47.964;-3.842;2022-07-06T09:13:30;1.00;;;1.00;;
29184;SDS011;16233;47.964;-3.842;2022-07-06T09:15:31;1.40;;;1.40;;
29184;SDS011;16233;47.964;-3.842;2022-07-06T09:17:36;1.75;;;1.50;;
29184;SDS011;16233;47.964;-3.842;2022-07-06T09:19:38;1.40;;;1.40;;
29184;SDS011;16233;47.964;-3.842;2022-07-06T09:21:39;1.13;;;1.13;;
29184;SDS011;16233;47.964;-3.842;2022-07-06T09:23:40;1.50;;;1.40;;
29184;SDS011;16233;47.964;-3.842;2022-07-06T09:25:43;1.27;;;1.23;;
29184;SDS011;16233;47.964;-3.842;2022-07-06T09:27:48;1.30;;;1.20;;
29184;SDS011;16233;47.964;-3.842;2022-07-06T09:29:49;0.98;;;0.98;;
29184;SDS011;16233;47.964;-3.842;2022-07-06T09:31:55;1.15;;;1.10;;
29184;SDS011;16233;47.964;-3.842;2022-07-06T09:33:57;1.40;;;1.15;;
29184;SDS011;16233;47.964;-3.842;2022-07-06T09:36:00;1.30;;;1.20;;
29184;SDS011;16233;47.964;-3.842;2022-07-06T09:38:02;1.15;;;1.15;;
29184;SDS011;16233;47.964;-3.842;2022-07-06T09:40:15;1.30;;;1.20;;
29184;SDS011;16233;47.964;-3.842;2022-07-06T09:42:18;1.17;;;1.00;;
29184;SDS011;16233;47.964;-3.842;2022-07-06T09:44:25;2.08;;;1.17;;
29184;SDS011;16233;47.964;-3.842;2022-07-06T09:46:27;1.08;;;1.02;;
29184;SDS011;16233;47.964;-3.842;2022-07-06T09:48:28;1.33;;;0.93;;
29184;SDS011;16233;47.964;-3.842;2022-07-06T09:50:29;1.00;;;1.00;;
29184;SDS011;16233;47.964;-3.842;2022-07-06T09:52:39;1.08;;;1.08;;
29184;SDS011;16233;47.964;-3.842;2022-07-06T09:54:40;1.08;;;1.02;;
29184;SDS011;16233;47.964;-3.842;2022-07-06T09:56:41;0.90;;;0.90;;
29184;SDS011;16233;47.964;-3.842;2022-07-06T09:58:45;0.90;;;0.80;;
29184;SDS011;16233;47.964;-3.842;2022-07-06T10:00:50;1.00;;;1.00;;
29184;SDS011;16233;47.964;-3.842;2022-07-06T10:02:51;1.10;;;1.00;;
29184;SDS011;16233;47.964;-3.842;2022-07-06T10:04:53;0.80;;;0.80;;
29184;SDS011;16233;47.964;-3.842;2022-07-06T10:06:56;1.45;;;1.00;;
29184;SDS011;16233;47.964;-3.842;2022-07-06T10:08:58;0.95;;;0.95;;
29184;SDS011;16233;47.964;-3.842;2022-07-06T10:10:59;1.08;;;1.08;;
29184;SDS011;16233;47.964;-3.842;2022-07-06T10:13:02;2.20;;;1.08;;
29184;SDS011;16233;47.964;-3.842;2022-07-06T10:15:05;1.10;;;1.10;;
29184;SDS011;16233;47.964;-3.842;2022-07-06T10:17:07;1.10;;;1.10;;
29184;SDS011;16233;47.964;-3.842;2022-07-06T10:19:09;1.85;;;0.90;;
29184;SDS011;16233;47.964;-3.842;2022-07-06T10:21:10;0.80;;;0.80;;
29184;SDS011;16233;47.964;-3.842;2022-07-06T10:23:11;1.17;;;1.08;;
29184;SDS011;16233;47.964;-3.842;2022-07-06T10:25:14;1.05;;;1.05;;
29184;SDS011;16233;47.964;-3.842;2022-07-06T10:27:16;1.05;;;1.00;;
29184;SDS011;16233;47.964;-3.842;2022-07-06T10:29:17;3.67;;;1.13;;
29184;SDS011;16233;47.964;-3.842;2022-07-06T10:31:20;4.22;;;1.20;;
29184;SDS011;16233;47.964;-3.842;2022-07-06T10:33:22;2.35;;;1.40;;
29184;SDS011;16233;47.964;-3.842;2022-07-06T10:35:24;2.42;;;1.00;;
29184;SDS011;16233;47.964;-3.842;2022-07-06T10:37:26;1.17;;;0.93;;
29184;SDS011;16233;47.964;-3.842;2022-07-06T10:39:34;0.98;;;0.98;;
29184;SDS011;16233;47.964;-3.842;2022-07-06T10:41:36;1.92;;;1.77;;
29184;SDS011;16233;47.964;-3.842;2022-07-06T10:43:37;1.30;;;1.30;;
29184;SDS011;16233;47.964;-3.842;2022-07-06T10:45:52;2.58;;;1.25;;
29184;SDS011;16233;47.964;-3.842;2022-07-06T10:50:20;1.25;;;1.25;;
29184;SDS011;16233;47.964;-3.842;2022-07-06T10:52:22;3.00;;;2.15;;
29184;SDS011;16233;47.964;-3.842;2022-07-06T10:54:24;0.80;;;0.80;;
29184;SDS011;16233;47.964;-3.842;2022-07-06T10:56:31;0.90;;;0.90;;
29184;SDS011;16233;47.964;-3.842;2022-07-06T10:58:40;0.98;;;0.98;;
29184;SDS011;16233;47.964;-3.842;2022-07-06T11:00:50;3.03;;;1.15;;
29184;SDS011;16233;47.964;-3.842;2022-07-06T11:02:51;1.10;;;1.10;;
29184;SDS011;16233;47.964;-3.842;2022-07-06T11:04:54;0.80;;;0.80;;
29184;SDS011;16233;47.964;-3.842;2022-07-06T11:06:55;1.67;;;1.00;;
29184;SDS011;16233;47.964;-3.842;2022-07-06T11:08:56;1.02;;;1.00;;
29184;SDS011;16233;47.964;-3.842;2022-07-06T11:11:01;0.88;;;0.80;;
29184;SDS011;16233;47.964;-3.842;2022-07-06T11:13:21;1.10;;;0.90;;
29184;SDS011;16233;47.964;-3.842;2022-07-06T11:17:52;1.17;;;1.05;;
29184;SDS011;16233;47.964;-3.842;2022-07-06T11:20:12;0.93;;;0.93;;
29184;SDS011;16233;47.964;-3.842;2022-07-06T11:22:14;0.98;;;0.98;;
29184;SDS011;16233;47.964;-3.842;2022-07-06T11:24:19;2.42;;;0.93;;
29184;SDS011;16233;47.964;-3.842;2022-07-06T11:26:21;0.90;;;0.90;;
29184;SDS011;16233;47.964;-3.842;2022-07-06T11:28:22;1.17;;;0.80;;
29184;SDS011;16233;47.964;-3.842;2022-07-06T11:30:25;0.68;;;0.68;;
29184;SDS011;16233;47.964;-3.842;2022-07-06T11:32:26;0.95;;;0.80;;
29184;SDS011;16233;47.964;-3.842;2022-07-06T11:34:28;0.60;;;0.60;;
29184;SDS011;16233;47.964;-3.842;2022-07-06T11:36:31;0.80;;;0.80;;
29184;SDS011;16233;47.964;-3.842;2022-07-06T11:38:32;2.20;;;0.80;;
29184;SDS011;16233;47.964;-3.842;2022-07-06T11:40:37;1.50;;;0.70;;
29184;SDS011;16233;47.964;-3.842;2022-07-06T11:42:40;0.77;;;0.77;;
29184;SDS011;16233;47.964;-3.842;2022-07-06T11:44:56;0.75;;;0.75;;
29184;SDS011;16233;47.964;-3.842;2022-07-06T11:46:57;1.85;;;0.80;;
29184;SDS011;16233;47.964;-3.842;2022-07-06T11:48:59;0.70;;;0.70;;
29184;SDS011;16233;47.964;-3.842;2022-07-06T11:51:02;0.70;;;0.70;;
29184;SDS011;16233;47.964;-3.842;2022-07-06T11:53:05;0.80;;;0.80;;
29184;SDS011;16233;47.964;-3.842;2022-07-06T11:55:07;0.80;;;0.80;;
29184;SDS011;16233;47.964;-3.842;2022-07-06T11:57:09;1.05;;;1.05;;
29184;SDS011;16233;47.964;-3.842;2022-07-06T11:59:10;0.70;;;0.70;;
29184;SDS011;16233;47.964;-3.842;2022-07-06T12:01:11;0.80;;;0.80;;
29184;SDS011;16233;47.964;-3.842;2022-07-06T12:03:15;6.22;;;1.52;;
29184;SDS011;16233;47.964;-3.842;2022-07-06T12:05:28;0.88;;;0.88;;
29184;SDS011;16233;47.964;-3.842;2022-07-06T12:07:29;0.90;;;0.90;;